createdAt,value
2022-08-17T00:01:51.532Z,64.95
2022-08-17T00:04:19.920Z,64.50
2022-08-17T00:06:47.545Z,65.63
2022-08-17T00:09:18.919Z,69.35
2022-08-17T00:12:43.682Z,65.10
2022-08-17T00:14:35.005Z,71.20
2022-08-17T00:17:03.906Z,67.38
2022-08-17T00:19:32.877Z,71.60
2022-08-17T00:22:30.964Z,73.90
2022-08-17T00:24:50.601Z,68.63
2022-08-17T00:27:18.381Z,67.55
2022-08-17T00:29:46.659Z,69.15
2022-08-17T00:33:15.012Z,68.13
2022-08-17T00:35:04.527Z,72.40
2022-08-17T00:37:31.851Z,71.63
2022-08-17T00:39:59.183Z,67.97
2022-08-17T00:42:30.903Z,73.72
2022-08-17T00:44:58.332Z,69.85
2022-08-17T00:47:25.668Z,79.45
2022-08-17T00:49:52.983Z,74.82
2022-08-17T00:52:23.930Z,81.72
2022-08-17T00:54:54.097Z,73.35
2022-08-17T00:57:24.611Z,74.10
2022-08-17T01:00:01.823Z,76.22
2022-08-17T01:02:34.411Z,76.75
2022-08-17T01:05:11.073Z,76.00
2022-08-17T01:07:38.946Z,71.50
2022-08-17T01:10:07.427Z,68.38
2022-08-17T01:12:54.893Z,67.00
2022-08-17T01:15:22.151Z,70.47
2022-08-17T01:17:49.596Z,74.32
2022-08-17T01:20:16.982Z,67.53
2022-08-17T01:22:44.316Z,70.97
2022-08-17T01:25:12.668Z,66.85
2022-08-17T01:27:40.165Z,65.47
2022-08-17T01:30:56.754Z,67.40
2022-08-17T01:32:56.651Z,70.95
2022-08-17T01:35:24.013Z,66.10
2022-08-17T01:37:51.266Z,57.95
2022-08-17T01:40:30.524Z,58.92
2022-08-17T01:43:00.190Z,58.95
2022-08-17T01:45:30.348Z,79.55
2022-08-17T01:47:57.859Z,60.70
2022-08-17T01:50:27.870Z,63.63
2022-08-17T01:52:57.956Z,59.80
2022-08-17T01:55:29.499Z,47.95
2022-08-17T02:00:24.046Z,61.15
2022-08-17T02:02:51.490Z,72.18
2022-08-17T02:05:18.901Z,61.22
2022-08-17T02:07:59.655Z,73.18
2022-08-17T02:10:33.735Z,75.28
2022-08-17T02:13:02.503Z,48.72
2022-08-17T02:15:29.872Z,47.60
2022-08-17T02:17:57.220Z,45.22
2022-08-17T02:20:42.032Z,52.42
2022-08-17T02:23:11.891Z,59.75
2022-08-17T02:25:39.915Z,46.78
2022-08-17T02:28:07.309Z,51.60
2022-08-17T02:30:59.600Z,57.75
2022-08-17T02:33:22.261Z,70.72
2022-08-17T02:35:49.663Z,55.33
2022-08-17T02:38:17.480Z,54.28
2022-08-17T02:40:45.067Z,66.68
2022-08-17T02:43:13.779Z,65.57
2022-08-17T02:45:41.187Z,62.28
2022-08-17T02:48:08.878Z,57.85
2022-08-17T02:50:36.174Z,67.68
2022-08-17T02:53:04.747Z,59.17
2022-08-17T02:55:34.455Z,53.60
2022-08-17T02:58:03.690Z,58.00
2022-08-17T03:00:34.539Z,48.90
2022-08-17T03:03:02.651Z,61.80
2022-08-17T03:05:31.237Z,57.78
2022-08-17T03:07:58.570Z,83.30
2022-08-17T03:10:26.331Z,51.47
2022-08-17T03:12:53.785Z,68.35
2022-08-17T03:15:22.940Z,63.50
2022-08-17T03:17:50.561Z,43.75
2022-08-17T03:20:17.862Z,52.72
2022-08-17T03:22:48.118Z,43.75
2022-08-17T03:25:26.878Z,31.63
2022-08-17T03:27:54.249Z,39.65
2022-08-17T03:30:25.066Z,41.00
2022-08-17T03:32:54.698Z,40.97
2022-08-17T03:35:23.123Z,36.38
2022-08-17T03:37:57.012Z,38.38
2022-08-17T03:40:34.549Z,35.17
2022-08-17T03:43:15.802Z,32.72
2022-08-17T03:46:02.357Z,37.88
2022-08-17T03:48:48.532Z,37.63
2022-08-17T03:51:40.065Z,36.15
2022-08-17T03:54:26.513Z,35.25
2022-08-17T03:57:07.236Z,38.83
2022-08-17T03:59:34.971Z,36.58
2022-08-17T04:02:09.664Z,30.58
2022-08-17T04:04:37.103Z,34.13
2022-08-17T04:07:04.505Z,37.85
2022-08-17T04:09:31.835Z,37.28
2022-08-17T04:12:00.270Z,35.20
2022-08-17T04:14:33.708Z,30.33
2022-08-17T04:17:00.987Z,30.23
2022-08-17T04:19:28.320Z,28.48
2022-08-17T04:21:55.592Z,28.05
2022-08-17T04:24:22.870Z,36.03
2022-08-17T04:26:52.716Z,37.88
2022-08-17T04:29:21.640Z,38.35
2022-08-17T04:31:49.009Z,41.08
2022-08-17T04:34:19.889Z,62.88
2022-08-17T04:36:50.225Z,83.13
2022-08-17T04:39:17.800Z,64.90
2022-08-17T04:42:03.617Z,67.38
2022-08-17T04:44:37.670Z,69.70
2022-08-17T04:47:07.198Z,68.70
2022-08-17T04:49:38.054Z,73.88
2022-08-17T04:52:05.544Z,61.20
2022-08-17T04:54:32.835Z,57.58
2022-08-17T04:57:00.217Z,57.17
2022-08-17T04:59:27.574Z,61.80
2022-08-17T05:01:54.896Z,57.92
2022-08-17T05:04:35.020Z,53.25
2022-08-17T05:07:04.639Z,60.33
2022-08-17T05:09:31.982Z,68.75
2022-08-17T05:12:02.243Z,57.60
2022-08-17T05:14:32.937Z,55.22
2022-08-17T05:19:28.508Z,46.08
2022-08-17T05:21:55.770Z,46.63
2022-08-17T05:24:41.236Z,47.85
2022-08-17T05:27:10.271Z,43.92
2022-08-17T05:29:44.168Z,54.35
2022-08-17T05:32:38.642Z,51.75
2022-08-17T05:35:00.364Z,52.88
2022-08-17T05:37:27.842Z,52.42
2022-08-17T05:39:55.180Z,50.30
2022-08-17T05:42:22.595Z,55.83
2022-08-17T05:44:49.900Z,61.90
2022-08-17T05:47:17.357Z,63.35
2022-08-17T05:49:44.628Z,60.10
2022-08-17T05:52:34.852Z,64.95
2022-08-17T05:55:02.079Z,67.03
2022-08-17T05:57:53.892Z,75.82
2022-08-17T06:00:30.107Z,79.70
2022-08-17T06:03:13.404Z,85.72
2022-08-17T06:05:51.465Z,89.32
2022-08-17T06:08:22.119Z,85.25
2022-08-17T06:10:53.180Z,97.13
2022-08-17T06:13:23.375Z,93.30
2022-08-17T06:15:50.771Z,110.22
2022-08-17T06:18:19.303Z,109.03
2022-08-17T06:20:49.887Z,111.68
2022-08-17T06:23:21.845Z,121.78
2022-08-17T06:25:52.862Z,168.18
2022-08-17T06:28:43.503Z,146.88
2022-08-17T06:31:21.442Z,149.98
2022-08-17T06:33:49.489Z,140.13
2022-08-17T06:36:17.519Z,134.25
2022-08-17T06:39:10.456Z,128.77
2022-08-17T06:41:41.796Z,142.45
2022-08-17T06:44:12.028Z,153.15
2022-08-17T06:47:04.112Z,162.82
2022-08-17T06:49:34.737Z,206.15
2022-08-17T06:52:13.308Z,878.30
2022-08-17T06:55:00.549Z,184.73
2022-08-17T06:57:32.421Z,198.52
2022-08-17T07:00:02.550Z,195.00
2022-08-17T07:02:51.544Z,191.35
2022-08-17T07:05:20.118Z,195.52
2022-08-17T07:08:02.556Z,191.35
2022-08-17T07:10:38.831Z,207.20
2022-08-17T07:13:18.239Z,208.80
2022-08-17T07:15:46.451Z,198.98
2022-08-17T07:18:13.796Z,210.90
2022-08-17T07:20:42.982Z,211.70
2022-08-17T07:23:13.376Z,206.25
2022-08-17T07:25:40.632Z,217.15
2022-08-17T07:28:08.568Z,208.27
2022-08-17T07:30:45.774Z,213.80
2022-08-17T07:33:25.807Z,216.25
2022-08-17T07:35:53.654Z,214.13
2022-08-17T07:38:27.737Z,212.25
2022-08-17T07:40:58.901Z,213.60
2022-08-17T07:43:31.150Z,220.20
2022-08-17T07:46:20.067Z,222.10
2022-08-17T07:48:55.195Z,212.27
2022-08-17T07:51:22.465Z,215.25
2022-08-17T07:53:50.181Z,224.73
2022-08-17T07:56:37.961Z,230.57
2022-08-17T07:59:08.197Z,203.85
2022-08-17T08:01:41.784Z,211.85
2022-08-17T08:04:19.513Z,208.68
2022-08-17T08:06:52.827Z,224.07
2022-08-17T08:09:49.644Z,219.23
2022-08-17T08:12:25.865Z,223.02
2022-08-17T08:15:02.597Z,230.15
2022-08-17T08:17:35.679Z,220.88
2022-08-17T08:20:42.407Z,230.35
2022-08-17T08:23:02.488Z,228.07
2022-08-17T08:25:53.236Z,229.57
2022-08-17T08:28:39.228Z,227.97
2022-08-17T08:31:25.257Z,222.23
2022-08-17T08:34:47.415Z,231.45
2022-08-17T08:37:22.602Z,215.32
2022-08-17T08:39:54.880Z,218.00
2022-08-17T08:42:23.481Z,222.77
2022-08-17T08:45:04.655Z,215.70
2022-08-17T08:47:41.663Z,220.88
2022-08-17T08:50:37.154Z,214.73
2022-08-17T08:53:24.208Z,221.50
2022-08-17T08:56:10.035Z,240.00
2022-08-17T08:58:51.362Z,209.10
2022-08-17T09:01:31.967Z,207.23
2022-08-17T09:04:12.032Z,213.07
2022-08-17T09:06:57.262Z,216.07
2022-08-17T09:09:43.794Z,204.85
2022-08-17T09:12:22.083Z,198.90
2022-08-17T09:15:02.248Z,212.13
2022-08-17T09:17:32.510Z,208.07
2022-08-17T09:20:03.829Z,218.48
2022-08-17T09:22:37.067Z,217.50
2022-08-17T09:25:04.430Z,257.35
2022-08-17T09:27:33.778Z,208.57
2022-08-17T09:30:02.974Z,194.70
2022-08-17T09:32:52.182Z,190.60
2022-08-17T09:35:23.826Z,179.40
2022-08-17T09:38:09.370Z,166.70
2022-08-17T09:40:40.449Z,164.93
2022-08-17T09:43:16.692Z,163.60
2022-08-17T09:45:46.799Z,151.05
2022-08-17T09:48:29.171Z,143.40
2022-08-17T09:51:04.649Z,133.60
2022-08-17T09:53:33.885Z,122.50
2022-08-17T09:56:10.224Z,112.28
2022-08-17T09:58:40.641Z,107.00
2022-08-17T10:01:31.517Z,102.20
2022-08-17T10:04:24.845Z,116.53
2022-08-17T10:07:07.161Z,94.38
2022-08-17T10:09:49.462Z,81.50
2022-08-17T10:12:30.219Z,81.75
2022-08-17T10:15:17.443Z,83.10
2022-08-17T10:18:04.120Z,72.88
2022-08-17T10:20:45.000Z,66.13
2022-08-17T10:23:36.956Z,66.43
2022-08-17T10:26:15.681Z,60.00
2022-08-17T10:29:00.050Z,58.72
2022-08-17T10:31:34.736Z,58.58
2022-08-17T10:34:20.716Z,51.92
2022-08-17T10:36:54.983Z,52.00
2022-08-17T10:39:25.406Z,53.42
2022-08-17T10:41:56.290Z,59.38
2022-08-17T10:44:38.730Z,54.47
2022-08-17T10:47:14.518Z,56.40
2022-08-17T10:49:53.895Z,48.13
2022-08-17T10:52:27.843Z,54.83
2022-08-17T10:54:58.532Z,54.45
2022-08-17T10:57:32.005Z,56.08
2022-08-17T11:00:01.484Z,46.80
2022-08-17T11:02:41.356Z,43.97
2022-08-17T11:05:08.764Z,47.78
2022-08-17T11:07:36.026Z,45.30
2022-08-17T11:10:26.296Z,48.00
2022-08-17T11:13:12.089Z,57.53
2022-08-17T11:15:56.621Z,45.22
2022-08-17T11:18:38.445Z,37.08
2022-08-17T11:21:11.692Z,42.70
2022-08-17T11:23:48.440Z,43.47
2022-08-17T11:26:27.756Z,42.58
2022-08-17T11:28:59.588Z,44.30
2022-08-17T11:31:37.798Z,44.28
2022-08-17T11:34:18.960Z,44.10
2022-08-17T11:36:48.947Z,45.80
2022-08-17T11:39:19.267Z,39.40
2022-08-17T11:42:01.520Z,42.53
2022-08-17T11:44:52.015Z,40.67
2022-08-17T11:48:08.889Z,45.42
2022-08-17T11:50:54.566Z,43.13
2022-08-17T11:53:39.828Z,39.80
2022-08-17T11:56:07.287Z,37.42
2022-08-17T11:58:37.494Z,44.08
2022-08-17T12:01:07.827Z,40.65
2022-08-17T12:03:35.083Z,40.30
2022-08-17T12:06:02.374Z,39.33
2022-08-17T12:08:32.682Z,37.90
2022-08-17T12:11:07.411Z,36.08
2022-08-17T12:13:39.737Z,32.17
2022-08-17T12:16:08.276Z,40.80
2022-08-17T12:18:37.612Z,31.02
2022-08-17T12:21:15.491Z,30.15
2022-08-17T12:24:06.531Z,30.35
2022-08-17T12:26:35.726Z,34.10
2022-08-17T12:29:05.265Z,45.47
2022-08-17T12:31:35.244Z,32.58
2022-08-17T12:34:03.329Z,29.45
2022-08-17T12:36:31.314Z,32.65
2022-08-17T12:39:14.583Z,29.70
2022-08-17T12:41:50.361Z,25.90
2022-08-17T12:44:17.790Z,23.80
2022-08-17T12:47:07.643Z,24.92
2022-08-17T12:49:36.446Z,26.83
2022-08-17T12:52:06.466Z,26.58
2022-08-17T12:54:38.291Z,26.08
2022-08-17T12:57:20.630Z,22.77
2022-08-17T12:59:52.946Z,18.63
2022-08-17T13:02:28.499Z,20.90
2022-08-17T13:04:57.380Z,22.80
2022-08-17T13:07:29.252Z,25.15
2022-08-17T13:09:56.552Z,27.35
2022-08-17T13:12:31.198Z,28.23
2022-08-17T13:14:58.964Z,21.80
2022-08-17T13:17:31.277Z,25.52
2022-08-17T13:19:58.798Z,25.95
2022-08-17T13:22:27.109Z,29.48
2022-08-17T13:24:55.896Z,33.08
2022-08-17T13:27:25.109Z,31.40
2022-08-17T13:29:55.627Z,27.88
2022-08-17T13:32:32.857Z,34.10
2022-08-17T13:35:14.970Z,27.50
2022-08-17T13:38:20.914Z,26.20
2022-08-17T13:40:53.279Z,23.25
2022-08-17T13:43:40.460Z,24.23
2022-08-17T13:46:09.798Z,27.60
2022-08-17T13:48:37.311Z,26.92
2022-08-17T13:51:25.864Z,24.13
2022-08-17T13:53:55.087Z,27.13
2022-08-17T13:56:37.263Z,26.90
2022-08-17T13:59:08.670Z,27.50
2022-08-17T14:01:36.037Z,26.02
2022-08-17T14:04:08.015Z,26.58
2022-08-17T14:06:53.287Z,24.95
2022-08-17T14:09:24.315Z,22.70
2022-08-17T14:11:52.312Z,22.45
2022-08-17T14:14:19.914Z,30.80
2022-08-17T14:16:47.163Z,42.15
2022-08-17T14:19:14.912Z,22.42
2022-08-17T14:21:43.762Z,25.58
2022-08-17T14:24:16.976Z,27.02
2022-08-17T14:26:44.925Z,28.70
2022-08-17T14:29:15.447Z,28.25
2022-08-17T14:31:43.064Z,23.85
2022-08-17T14:34:20.848Z,26.58
2022-08-17T14:36:48.554Z,21.08
2022-08-17T14:39:16.287Z,29.23
2022-08-17T14:41:43.781Z,27.67
2022-08-17T14:44:12.575Z,30.58
2022-08-17T14:46:40.946Z,22.50
2022-08-17T14:49:08.962Z,23.35
2022-08-17T14:51:43.553Z,24.88
2022-08-17T14:54:11.863Z,24.02
2022-08-17T14:57:00.894Z,20.67
2022-08-17T14:59:46.860Z,24.65
2022-08-17T15:02:14.618Z,23.00
2022-08-17T15:04:45.493Z,34.92
2022-08-17T15:07:13.211Z,29.38
2022-08-17T15:09:40.460Z,22.88
2022-08-17T15:12:08.081Z,26.52
2022-08-17T15:14:36.232Z,25.92
2022-08-17T15:17:04.333Z,20.25
2022-08-17T15:19:31.612Z,25.10
2022-08-17T15:21:59.220Z,27.00
2022-08-17T15:24:26.528Z,18.17
2022-08-17T15:26:53.751Z,24.02
2022-08-17T15:29:21.264Z,20.05
2022-08-17T15:31:48.493Z,21.80
2022-08-17T15:34:17.332Z,25.58
2022-08-17T15:36:49.225Z,23.67
2022-08-17T15:39:19.700Z,22.90
2022-08-17T15:41:47.432Z,19.33
2022-08-17T15:44:30.224Z,27.17
2022-08-17T15:47:02.126Z,27.52
2022-08-17T15:49:29.461Z,23.88
2022-08-17T15:51:56.755Z,22.27
2022-08-17T15:54:24.046Z,31.52
2022-08-17T15:56:51.504Z,32.53
2022-08-17T15:59:19.444Z,22.02
2022-08-17T16:03:14.650Z,22.02
2022-08-17T16:04:34.152Z,21.52
2022-08-17T16:07:01.518Z,20.70
2022-08-17T16:09:28.850Z,16.08
2022-08-17T16:11:56.627Z,17.98
2022-08-17T16:14:32.335Z,14.07
2022-08-17T16:17:02.168Z,15.98
2022-08-17T16:19:29.462Z,21.83
2022-08-17T16:21:56.758Z,17.02
2022-08-17T16:24:24.093Z,16.73
2022-08-17T16:26:51.572Z,16.58
2022-08-17T16:29:18.865Z,20.08
2022-08-17T16:31:46.128Z,19.77
2022-08-17T16:34:16.776Z,23.55
2022-08-17T16:36:55.433Z,32.22
2022-08-17T16:39:27.325Z,13.55
2022-08-17T16:41:55.856Z,12.38
2022-08-17T16:44:23.195Z,14.00
2022-08-17T16:46:50.776Z,19.15
2022-08-17T16:49:36.119Z,18.25
2022-08-17T16:52:05.298Z,16.15
2022-08-17T16:54:33.500Z,26.38
2022-08-17T16:57:00.802Z,24.08
2022-08-17T16:59:30.754Z,16.67
2022-08-17T17:04:35.009Z,9.13
2022-08-17T17:07:17.801Z,7.40
2022-08-17T17:09:48.876Z,6.68
2022-08-17T17:12:19.239Z,6.25
2022-08-17T17:15:05.768Z,7.22
2022-08-17T17:17:37.605Z,6.60
2022-08-17T17:20:13.987Z,5.97
2022-08-17T17:22:50.223Z,6.25
2022-08-17T17:25:20.258Z,6.18
2022-08-17T17:27:50.477Z,5.82
2022-08-17T17:30:20.820Z,7.00
2022-08-17T17:32:57.310Z,9.85
2022-08-17T17:35:33.716Z,6.35
2022-08-17T17:38:06.365Z,6.13
2022-08-17T17:40:39.253Z,6.85
2022-08-17T17:43:34.724Z,7.00
2022-08-17T17:45:58.543Z,6.18
2022-08-17T17:48:45.768Z,5.38
2022-08-17T17:52:02.846Z,20.40
2022-08-17T17:56:43.271Z,8.10
2022-08-17T17:59:18.400Z,4.88
2022-08-17T18:01:45.907Z,4.55
2022-08-17T18:04:20.730Z,5.43
2022-08-17T18:06:57.777Z,8.75
2022-08-17T18:09:51.643Z,8.20
2022-08-17T18:12:26.104Z,5.65
2022-08-17T18:15:02.184Z,5.70
2022-08-17T18:17:31.075Z,7.65
2022-08-17T18:19:58.475Z,12.15
2022-08-17T18:22:27.775Z,8.57
2022-08-17T18:24:57.206Z,14.40
2022-08-17T18:27:32.153Z,16.55
2022-08-17T18:30:03.443Z,15.27
2022-08-17T18:32:42.530Z,17.83
2022-08-17T18:35:09.762Z,18.48
2022-08-17T18:37:45.980Z,32.78
2022-08-17T18:40:23.387Z,32.28
2022-08-17T18:42:56.674Z,34.67
2022-08-17T18:45:41.754Z,33.30
2022-08-17T18:48:24.474Z,35.75
2022-08-17T18:50:53.586Z,32.20
2022-08-17T18:53:26.620Z,25.17
2022-08-17T18:56:08.477Z,29.17
2022-08-17T18:58:36.226Z,28.02
2022-08-17T19:01:03.669Z,27.73
2022-08-17T19:03:30.952Z,29.30
2022-08-17T19:06:17.104Z,24.10
2022-08-17T19:08:44.492Z,47.40
2022-08-17T19:11:20.823Z,24.10
2022-08-17T19:14:08.307Z,24.45
2022-08-17T19:16:41.726Z,25.60
2022-08-17T19:19:14.429Z,21.58
2022-08-17T19:21:47.659Z,28.40
2022-08-17T19:24:19.595Z,45.70
2022-08-17T19:26:56.108Z,22.80
2022-08-17T19:29:26.961Z,20.83
2022-08-17T19:31:56.209Z,17.55
2022-08-17T19:34:30.054Z,26.17
2022-08-17T19:37:10.412Z,27.45
2022-08-17T19:39:40.477Z,21.45
2022-08-17T19:42:07.756Z,24.63
2022-08-17T19:44:55.270Z,23.77
2022-08-17T19:47:53.676Z,25.48
2022-08-17T19:50:39.049Z,25.88
2022-08-17T19:53:21.542Z,24.75
2022-08-17T19:56:03.924Z,26.23
2022-08-17T19:58:44.799Z,26.77
2022-08-17T20:01:13.641Z,34.17
2022-08-17T20:03:46.909Z,33.25
2022-08-17T20:06:14.614Z,40.85
2022-08-17T20:08:48.628Z,23.25
2022-08-17T20:11:27.313Z,31.80
2022-08-17T20:14:17.615Z,21.77
2022-08-17T20:16:44.976Z,32.58
2022-08-17T20:19:38.462Z,33.80
2022-08-17T20:22:11.661Z,28.25
2022-08-17T20:24:38.925Z,21.80
2022-08-17T20:27:09.252Z,25.42
2022-08-17T20:30:09.774Z,27.75
2022-08-17T20:32:49.126Z,27.35
2022-08-17T20:35:27.399Z,27.17
2022-08-17T20:37:56.629Z,64.53
2022-08-17T20:40:28.868Z,24.77
2022-08-17T20:42:56.781Z,29.45
2022-08-17T20:45:26.332Z,28.38
2022-08-17T20:48:36.706Z,23.38
2022-08-17T20:51:34.639Z,20.42
2022-08-17T20:54:06.925Z,20.88
2022-08-17T20:56:44.299Z,17.60
2022-08-17T20:59:38.507Z,16.75
2022-08-17T21:02:18.966Z,18.58
2022-08-17T21:04:59.941Z,19.05
2022-08-17T21:07:30.267Z,24.55
2022-08-17T21:10:09.750Z,17.63
2022-08-17T21:12:47.944Z,24.15
2022-08-17T21:15:34.945Z,18.55
2022-08-17T21:18:20.929Z,19.27
2022-08-17T21:21:08.408Z,30.58
2022-08-17T21:23:40.393Z,22.95
2022-08-17T21:26:07.637Z,22.42
2022-08-17T21:28:34.935Z,28.90
2022-08-17T21:31:08.940Z,27.95
2022-08-17T21:33:38.779Z,24.42
2022-08-17T21:36:06.013Z,24.48
2022-08-17T21:38:36.391Z,26.92
2022-08-17T21:41:03.834Z,21.70
2022-08-17T21:43:32.652Z,21.85
2022-08-17T21:46:08.348Z,21.55
2022-08-17T21:48:48.298Z,18.08
2022-08-17T21:51:28.813Z,25.15
2022-08-17T21:54:00.843Z,18.70
2022-08-17T21:56:31.499Z,25.38
2022-08-17T21:59:03.771Z,18.20
2022-08-17T22:01:39.905Z,23.35
2022-08-17T22:04:18.935Z,16.17
2022-08-17T22:06:57.347Z,19.27
2022-08-17T22:09:28.074Z,24.58
2022-08-17T22:12:13.763Z,18.47
2022-08-17T22:14:52.181Z,21.90
2022-08-17T22:17:28.751Z,20.13
2022-08-17T22:20:16.867Z,16.13
2022-08-17T22:23:05.543Z,13.70
2022-08-17T22:25:52.747Z,20.60
2022-08-17T22:28:36.520Z,22.23
2022-08-17T22:31:07.259Z,19.83
2022-08-17T22:33:40.515Z,23.80
2022-08-17T22:36:29.041Z,20.80
2022-08-17T22:39:05.803Z,22.23
2022-08-17T22:41:34.394Z,21.40
2022-08-17T22:44:09.101Z,28.83
2022-08-17T22:46:39.468Z,22.08
2022-08-17T22:49:07.315Z,27.38
2022-08-17T22:51:34.633Z,21.67
2022-08-17T22:54:22.093Z,19.77
2022-08-17T22:57:11.644Z,21.20
2022-08-17T22:59:48.375Z,20.50
2022-08-17T23:02:27.793Z,20.88
2022-08-17T23:05:10.754Z,20.83
2022-08-17T23:07:47.793Z,15.98
2022-08-17T23:10:15.453Z,20.35
2022-08-17T23:12:42.933Z,17.73
2022-08-17T23:15:17.958Z,20.58
2022-08-17T23:17:45.615Z,20.17
2022-08-17T23:20:13.781Z,17.60
2022-08-17T23:22:51.100Z,18.90
2022-08-17T23:25:25.202Z,17.75
2022-08-17T23:27:52.706Z,22.10
2022-08-17T23:30:20.344Z,17.58
2022-08-17T23:32:53.557Z,16.15
2022-08-17T23:35:39.219Z,21.20
2022-08-17T23:38:09.210Z,18.30
2022-08-17T23:40:37.791Z,28.40
2022-08-17T23:43:23.373Z,23.42
2022-08-17T23:45:57.608Z,16.63
2022-08-17T23:48:35.084Z,13.13
2022-08-17T23:51:04.773Z,12.73
2022-08-17T23:53:34.767Z,10.43
2022-08-17T23:56:09.437Z,10.45
2022-08-17T23:58:38.581Z,20.92
